createdAt,value
2022-10-30T00:01:23.442Z,9.13
2022-10-30T00:03:51.825Z,10.30
2022-10-30T00:06:21.600Z,9.48
2022-10-30T00:08:49.820Z,9.80
2022-10-30T00:11:18.264Z,10.73
2022-10-30T00:13:46.855Z,9.63
2022-10-30T00:16:15.279Z,10.65
2022-10-30T00:18:43.583Z,9.60
2022-10-30T00:21:14.797Z,10.18
2022-10-30T00:23:49.610Z,10.20
2022-10-30T00:26:18.564Z,10.85
2022-10-30T00:28:50.980Z,9.55
2022-10-30T00:31:19.519Z,9.35
2022-10-30T00:33:51.813Z,9.70
2022-10-30T00:36:20.569Z,9.23
2022-10-30T00:38:51.632Z,10.10
2022-10-30T00:41:22.427Z,10.80
2022-10-30T00:43:51.156Z,10.15
2022-10-30T00:46:27.403Z,10.65
2022-10-30T00:48:59.665Z,9.95
2022-10-30T00:51:30.612Z,11.25
2022-10-30T00:54:02.756Z,9.93
2022-10-30T00:56:31.655Z,10.50
2022-10-30T00:59:03.192Z,10.60
2022-10-30T01:01:38.307Z,10.32
2022-10-30T01:04:08.045Z,11.55
2022-10-30T01:06:43.654Z,11.50
2022-10-30T01:09:13.232Z,11.18
2022-10-30T01:11:41.694Z,11.35
2022-10-30T01:14:13.397Z,11.38
2022-10-30T01:17:08.596Z,11.77
2022-10-30T01:19:45.613Z,11.68
2022-10-30T01:22:30.819Z,11.50
2022-10-30T01:25:18.271Z,10.73
2022-10-30T01:27:56.529Z,11.50
2022-10-30T01:30:44.895Z,11.18
2022-10-30T01:33:29.857Z,11.93
2022-10-30T01:36:06.935Z,11.07
2022-10-30T01:38:42.906Z,11.35
2022-10-30T01:41:12.612Z,11.75
2022-10-30T01:43:41.963Z,11.25
2022-10-30T01:46:35.540Z,12.32
2022-10-30T01:49:36.170Z,11.70
2022-10-30T01:52:14.477Z,11.27
2022-10-30T01:54:50.952Z,12.32
2022-10-30T01:57:39.877Z,11.75
2022-10-30T02:00:11.311Z,12.05
2022-10-30T02:02:39.905Z,12.48
2022-10-30T02:05:10.924Z,11.27
2022-10-30T02:07:39.297Z,11.23
2022-10-30T02:10:08.604Z,12.02
2022-10-30T02:12:39.482Z,11.80
2022-10-30T02:15:08.963Z,12.02
2022-10-30T02:17:37.615Z,12.15
2022-10-30T02:20:07.413Z,12.10
2022-10-30T02:22:37.039Z,12.77
2022-10-30T02:25:07.407Z,12.50
2022-10-30T02:27:35.697Z,11.80
2022-10-30T02:30:04.135Z,13.07
2022-10-30T02:32:32.500Z,12.57
2022-10-30T02:35:00.823Z,12.77
2022-10-30T02:37:29.168Z,12.63
2022-10-30T02:39:58.708Z,12.82
2022-10-30T02:42:26.957Z,12.48
2022-10-30T02:44:55.097Z,12.02
2022-10-30T02:47:23.472Z,12.88
2022-10-30T02:49:51.718Z,12.57
2022-10-30T02:52:19.909Z,12.35
2022-10-30T02:54:49.119Z,12.60
2022-10-30T02:57:18.702Z,12.90
2022-10-30T02:59:46.849Z,11.88
2022-10-30T03:02:15.344Z,12.90
2022-10-30T03:04:43.622Z,12.60
2022-10-30T03:07:11.897Z,13.43
2022-10-30T03:09:40.236Z,11.68
2022-10-30T03:12:08.907Z,13.20
2022-10-30T03:14:38.635Z,12.45
2022-10-30T03:17:07.081Z,12.10
2022-10-30T03:19:35.630Z,12.45
2022-10-30T03:22:04.263Z,13.10
2022-10-30T03:24:32.483Z,12.82
2022-10-30T03:27:03.315Z,12.68
2022-10-30T03:29:31.658Z,11.93
2022-10-30T03:32:01.418Z,13.15
2022-10-30T03:34:29.589Z,11.85
2022-10-30T03:36:57.765Z,11.95
2022-10-30T03:39:26.039Z,12.90
2022-10-30T03:41:54.239Z,12.63
2022-10-30T03:44:22.652Z,12.77
2022-10-30T03:46:50.867Z,13.23
2022-10-30T03:49:20.466Z,12.23
2022-10-30T03:51:48.721Z,13.60
2022-10-30T03:54:16.965Z,14.18
2022-10-30T03:56:46.408Z,14.65
2022-10-30T03:59:14.557Z,14.00
2022-10-30T04:01:43.269Z,14.75
2022-10-30T04:04:11.585Z,14.75
2022-10-30T04:06:41.411Z,14.55
2022-10-30T04:09:09.768Z,15.65
2022-10-30T04:11:37.913Z,15.75
2022-10-30T04:14:06.284Z,15.35
2022-10-30T04:16:34.463Z,15.43
2022-10-30T04:19:02.673Z,17.02
2022-10-30T04:21:31.051Z,16.33
2022-10-30T04:24:00.585Z,16.98
2022-10-30T04:26:29.387Z,16.55
2022-10-30T04:28:57.736Z,16.45
2022-10-30T04:31:25.851Z,16.88
2022-10-30T04:33:54.027Z,17.40
2022-10-30T04:36:30.317Z,16.27
2022-10-30T04:38:59.862Z,17.00
2022-10-30T04:41:28.098Z,16.40
2022-10-30T04:43:56.253Z,16.38
2022-10-30T04:46:24.560Z,15.90
2022-10-30T04:48:53.416Z,16.92
2022-10-30T04:51:21.726Z,16.13
2022-10-30T04:53:51.264Z,16.65
2022-10-30T04:56:20.890Z,16.60
2022-10-30T04:58:49.077Z,16.25
2022-10-30T05:01:17.424Z,16.92
2022-10-30T05:03:49.278Z,16.90
2022-10-30T05:06:24.137Z,17.23
2022-10-30T05:08:52.717Z,17.27
2022-10-30T05:11:22.613Z,17.02
2022-10-30T05:13:50.841Z,17.33
2022-10-30T05:16:19.394Z,17.02
2022-10-30T05:18:47.577Z,16.92
2022-10-30T05:21:15.803Z,18.55
2022-10-30T05:23:44.008Z,17.38
2022-10-30T05:26:12.467Z,18.40
2022-10-30T05:28:42.618Z,17.85
2022-10-30T05:31:10.842Z,17.60
2022-10-30T05:33:38.994Z,18.33
2022-10-30T05:36:07.916Z,17.65
2022-10-30T05:38:36.132Z,17.50
2022-10-30T05:41:04.362Z,18.83
2022-10-30T05:43:32.585Z,18.60
2022-10-30T05:46:02.137Z,19.25
2022-10-30T05:48:30.314Z,17.90
2022-10-30T05:50:58.627Z,19.65
2022-10-30T05:53:26.967Z,18.65
2022-10-30T05:55:58.629Z,18.70
2022-10-30T05:58:27.461Z,19.70
2022-10-30T06:00:55.668Z,19.73
2022-10-30T06:03:25.296Z,19.67
2022-10-30T06:05:53.558Z,19.63
2022-10-30T06:08:21.758Z,21.13
2022-10-30T06:10:49.941Z,21.10
2022-10-30T06:13:18.164Z,21.23
2022-10-30T06:15:53.532Z,20.67
2022-10-30T06:18:25.948Z,20.27
2022-10-30T06:21:00.195Z,19.92
2022-10-30T06:23:32.120Z,21.15
2022-10-30T06:26:02.012Z,19.88
2022-10-30T06:28:32.395Z,20.15
2022-10-30T06:31:10.139Z,21.27
2022-10-30T06:33:44.753Z,20.08
2022-10-30T06:36:17.911Z,20.25
2022-10-30T06:38:47.182Z,19.60
2022-10-30T06:41:30.634Z,20.60
2022-10-30T06:44:02.936Z,19.65
2022-10-30T06:46:37.948Z,20.23
2022-10-30T06:49:08.057Z,20.17
2022-10-30T06:51:40.761Z,20.40
2022-10-30T06:54:09.898Z,19.42
2022-10-30T06:56:39.744Z,20.27
2022-10-30T06:59:13.379Z,20.35
2022-10-30T07:01:47.650Z,20.70
2022-10-30T07:04:20.438Z,19.88
2022-10-30T07:06:52.950Z,19.85
2022-10-30T07:09:21.752Z,20.20
2022-10-30T07:11:56.591Z,20.70
2022-10-30T07:14:25.700Z,19.55
2022-10-30T07:16:56.952Z,20.10
2022-10-30T07:19:28.744Z,20.00
2022-10-30T07:21:59.186Z,18.73
2022-10-30T07:24:29.137Z,19.75
2022-10-30T07:27:09.237Z,20.42
2022-10-30T07:29:39.490Z,19.08
2022-10-30T07:32:18.472Z,19.52
2022-10-30T07:34:50.386Z,19.17
2022-10-30T07:37:25.643Z,19.13
2022-10-30T07:40:10.003Z,18.17
2022-10-30T07:45:52.685Z,17.85
2022-10-30T07:48:35.229Z,18.38
2022-10-30T07:54:20.653Z,16.58
2022-10-30T07:56:55.492Z,16.25
2022-10-30T07:59:34.463Z,17.50
2022-10-30T08:02:05.568Z,18.00
2022-10-30T08:04:43.959Z,16.88
2022-10-30T08:07:16.970Z,16.15
2022-10-30T08:09:45.786Z,15.52
2022-10-30T08:12:15.745Z,15.82
2022-10-30T08:14:54.292Z,16.45
2022-10-30T08:17:31.838Z,16.42
2022-10-30T08:20:01.341Z,15.13
2022-10-30T08:22:33.948Z,16.17
2022-10-30T08:25:09.886Z,16.23
2022-10-30T08:27:42.242Z,15.95
2022-10-30T08:30:15.338Z,16.60
2022-10-30T08:32:58.507Z,16.08
2022-10-30T08:38:46.095Z,16.48
2022-10-30T08:41:16.775Z,15.60
2022-10-30T08:43:48.441Z,16.23
2022-10-30T08:46:18.091Z,16.38
2022-10-30T08:48:48.799Z,16.33
2022-10-30T08:51:17.739Z,15.13
2022-10-30T08:53:51.795Z,15.77
2022-10-30T08:56:30.768Z,15.77
2022-10-30T08:58:59.495Z,14.75
2022-10-30T09:10:43.271Z,14.70
2022-10-30T09:13:32.446Z,14.38
2022-10-30T09:16:27.555Z,14.57
2022-10-30T09:19:01.484Z,13.88
2022-10-30T09:22:19.097Z,14.35
2022-10-30T09:24:53.003Z,14.77
2022-10-30T09:27:31.634Z,14.30
2022-10-30T09:54:34.289Z,13.15
2022-10-30T10:19:22.761Z,13.32
2022-10-30T10:45:23.481Z,13.70
2022-10-30T10:48:49.262Z,12.75
2022-10-30T10:51:23.300Z,12.68
2022-10-30T10:54:00.784Z,12.73
2022-10-30T10:56:37.630Z,12.05
2022-10-30T10:59:17.169Z,12.77
2022-10-30T11:01:55.208Z,12.13
2022-10-30T11:04:33.237Z,11.90
2022-10-30T11:22:50.935Z,10.55
2022-10-30T11:25:33.960Z,11.40
2022-10-30T11:29:19.875Z,11.85
2022-10-30T14:28:22.729Z,7.60
2022-10-30T15:03:29.717Z,5.13
2022-10-30T15:20:09.216Z,4.13
2022-10-30T15:22:49.331Z,3.70
2022-10-30T15:28:54.438Z,4.25
2022-10-30T16:14:17.809Z,5.10
2022-10-30T16:16:51.386Z,4.95
2022-10-30T16:19:44.162Z,4.85
2022-10-30T16:43:43.952Z,5.53
2022-10-30T16:46:55.119Z,7.43
2022-10-30T16:49:30.127Z,6.70
2022-10-30T16:58:35.465Z,6.03
2022-10-30T17:01:55.134Z,5.60
2022-10-30T17:04:58.191Z,6.05
2022-10-30T17:10:37.716Z,5.72
2022-10-30T17:18:13.717Z,7.43
2022-10-30T19:29:01.865Z,4.70
2022-10-30T19:32:07.784Z,4.60
2022-10-30T19:34:50.647Z,4.40
2022-10-30T20:50:01.432Z,7.15
2022-10-30T20:56:06.404Z,7.00
2022-10-30T21:21:07.750Z,5.68
2022-10-30T21:36:26.065Z,5.82
2022-10-30T21:49:39.577Z,5.03
2022-10-30T21:52:23.550Z,5.03
2022-10-30T21:55:02.752Z,5.15
2022-10-30T21:57:44.055Z,4.97
2022-10-30T22:00:20.886Z,5.20
2022-10-30T22:03:18.182Z,5.05
2022-10-30T22:15:32.860Z,4.90
2022-10-30T22:18:09.608Z,5.00
2022-10-30T22:20:47.786Z,5.68
2022-10-30T22:23:23.591Z,5.45
2022-10-30T22:26:00.293Z,6.00
2022-10-30T22:28:45.783Z,5.47
2022-10-30T22:31:23.069Z,5.55
2022-10-30T22:34:04.183Z,5.43
2022-10-30T22:36:36.992Z,5.65
2022-10-30T22:39:33.359Z,5.10
2022-10-30T22:42:14.199Z,5.68
2022-10-30T22:44:50.064Z,6.28
2022-10-30T22:48:03.123Z,5.85
2022-10-30T22:53:39.165Z,6.18
2022-10-30T22:56:47.929Z,6.47
2022-10-30T22:59:20.258Z,6.28
2022-10-30T23:01:52.763Z,6.53
2022-10-30T23:04:27.120Z,6.80
2022-10-30T23:07:02.341Z,6.90
2022-10-30T23:09:48.662Z,6.72
2022-10-30T23:12:30.731Z,6.75
2022-10-30T23:15:02.009Z,6.95
2022-10-30T23:17:37.351Z,7.15
2022-10-30T23:20:14.679Z,7.30
2022-10-30T23:23:00.427Z,7.68
2022-10-30T23:25:36.913Z,8.48
2022-10-30T23:31:37.917Z,8.00
2022-10-30T23:34:22.484Z,8.25
2022-10-30T23:37:03.613Z,9.85
2022-10-30T23:39:35.419Z,15.75
2022-10-30T23:42:15.520Z,29.33
2022-10-30T23:44:55.092Z,36.97
2022-10-30T23:47:47.480Z,37.58
2022-10-30T23:50:25.292Z,31.27
2022-10-30T23:53:00.641Z,23.08
2022-10-30T23:55:42.672Z,22.42
2022-10-30T23:58:21.766Z,20.88
